createdAt,value
2019-02-28T00:03:20.340Z,51.63
2019-02-28T00:07:23.845Z,51.91
2019-02-28T00:11:27.262Z,52.25
2019-02-28T00:15:30.863Z,52.72
2019-02-28T00:19:34.284Z,53.48
2019-02-28T00:23:37.683Z,53.97
2019-02-28T00:27:41.095Z,54.55
2019-02-28T00:31:49.488Z,54.79
2019-02-28T00:35:49.648Z,54.98
2019-02-28T00:39:53.376Z,54.86
2019-02-28T00:43:57.121Z,54.90
2019-02-28T00:48:01.307Z,55.26
2019-02-28T00:52:04.824Z,55.62
2019-02-28T00:56:08.235Z,55.89
2019-02-28T01:00:17.780Z,55.98
2019-02-28T01:04:21.294Z,56.25
2019-02-28T01:08:24.706Z,56.72
2019-02-28T01:12:28.113Z,57.34
2019-02-28T01:16:31.519Z,57.41
2019-02-28T01:20:34.929Z,57.49
2019-02-28T01:24:38.350Z,57.38
2019-02-28T01:28:41.746Z,57.48
2019-02-28T01:32:49.869Z,57.41
2019-02-28T01:36:50.419Z,57.31
2019-02-28T01:40:53.823Z,57.30
2019-02-28T01:44:57.224Z,58.02
2019-02-28T01:49:02.685Z,57.71
2019-02-28T01:53:06.095Z,57.58
2019-02-28T01:57:10.629Z,57.23
2019-02-28T02:01:14.241Z,56.98
2019-02-28T02:05:18.084Z,56.82
2019-02-28T02:09:21.775Z,57.25
2019-02-28T02:13:25.185Z,57.38
2019-02-28T02:17:28.594Z,57.59
2019-02-28T02:21:34.842Z,57.46
2019-02-28T02:25:38.185Z,57.17
2019-02-28T02:29:41.924Z,57.43
2019-02-28T02:33:51.112Z,57.59
2019-02-28T02:37:50.455Z,57.75
2019-02-28T02:41:53.862Z,57.84
2019-02-28T02:45:57.279Z,57.71
2019-02-28T02:50:00.620Z,57.97
2019-02-28T02:54:04.087Z,58.02
2019-02-28T02:58:07.497Z,58.11
2019-02-28T03:02:10.904Z,58.16
2019-02-28T03:06:14.553Z,58.30
2019-02-28T03:10:19.732Z,58.46
2019-02-28T03:14:23.387Z,58.63
2019-02-28T03:18:26.793Z,58.60
2019-02-28T03:22:30.468Z,58.73
2019-02-28T03:26:33.826Z,58.95
2019-02-28T03:30:37.232Z,59.24
2019-02-28T03:34:40.644Z,59.02
2019-02-28T03:38:48.203Z,59.25
2019-02-28T03:42:49.400Z,59.72
2019-02-28T03:46:52.912Z,59.78
2019-02-28T03:50:56.834Z,59.91
2019-02-28T03:55:03.192Z,59.81
2019-02-28T03:59:05.287Z,59.98
2019-02-28T04:03:08.697Z,59.99
2019-02-28T04:07:15.921Z,60.14
2019-02-28T04:11:17.254Z,60.31
2019-02-28T04:15:21.011Z,60.39
2019-02-28T04:19:24.481Z,60.53
2019-02-28T04:23:35.472Z,60.71
2019-02-28T04:27:33.042Z,60.72
2019-02-28T04:31:36.473Z,60.68
2019-02-28T04:35:39.856Z,60.91
2019-02-28T04:39:43.268Z,60.63
2019-02-28T04:43:46.677Z,61.12
2019-02-28T04:47:50.085Z,61.46
2019-02-28T04:51:53.499Z,61.33
2019-02-28T04:55:56.902Z,61.39
2019-02-28T05:00:00.405Z,61.29
2019-02-28T05:04:03.924Z,61.57
2019-02-28T05:08:07.334Z,61.79
2019-02-28T05:12:10.744Z,61.82
2019-02-28T05:16:14.151Z,61.77
2019-02-28T05:20:17.566Z,61.93
2019-02-28T05:24:20.969Z,61.86
2019-02-28T05:28:24.381Z,61.98
2019-02-28T05:32:27.833Z,61.98
2019-02-28T05:36:31.199Z,62.00
2019-02-28T05:40:40.432Z,62.34
2019-02-28T05:44:40.963Z,62.42
2019-02-28T05:48:44.700Z,62.26
2019-02-28T05:52:48.110Z,62.39
2019-02-28T05:56:51.628Z,62.38
2019-02-28T06:00:55.055Z,62.35
2019-02-28T06:04:58.438Z,62.41
2019-02-28T06:09:01.849Z,62.57
2019-02-28T06:13:05.255Z,62.77
2019-02-28T06:17:08.773Z,62.78
2019-02-28T06:21:12.191Z,62.75
2019-02-28T06:25:22.475Z,62.72
2019-02-28T06:29:20.838Z,62.79
2019-02-28T06:33:24.350Z,62.42
2019-02-28T06:37:27.758Z,61.87
2019-02-28T06:41:31.269Z,61.68
2019-02-28T06:45:37.627Z,60.64
2019-02-28T06:49:41.796Z,59.47
2019-02-28T06:53:44.975Z,57.06
2019-02-28T06:57:48.387Z,55.10
2019-02-28T07:01:56.609Z,53.60
2019-02-28T07:06:01.185Z,53.40
2019-02-28T07:10:03.017Z,53.40
2019-02-28T07:14:06.351Z,55.26
2019-02-28T07:18:09.836Z,55.67
2019-02-28T07:22:19.164Z,56.35
2019-02-28T07:26:18.898Z,57.42
2019-02-28T07:30:22.930Z,58.03
2019-02-28T07:34:26.439Z,57.99
2019-02-28T07:38:29.855Z,58.08
2019-02-28T07:42:33.699Z,58.12
2019-02-28T07:46:42.087Z,58.01
2019-02-28T07:50:46.493Z,57.20
2019-02-28T07:54:51.559Z,56.68
2019-02-28T07:58:53.959Z,55.66
2019-02-28T08:02:57.369Z,56.07
2019-02-28T08:07:00.713Z,55.73
2019-02-28T08:11:04.187Z,55.05
2019-02-28T08:15:11.038Z,54.52
2019-02-28T08:19:14.388Z,54.57
2019-02-28T08:23:17.793Z,53.42
2019-02-28T08:27:21.203Z,52.54
2019-02-28T08:31:24.608Z,53.19
2019-02-28T08:35:33.994Z,54.40
2019-02-28T08:39:33.166Z,55.19
2019-02-28T08:43:36.687Z,54.77
2019-02-28T08:47:40.090Z,53.61
2019-02-28T08:51:43.605Z,52.70
2019-02-28T08:55:46.959Z,52.36
2019-02-28T08:59:52.526Z,52.25
2019-02-28T09:03:55.453Z,52.82
2019-02-28T09:07:58.872Z,52.41
2019-02-28T09:12:02.282Z,50.63
2019-02-28T09:16:05.793Z,47.83
2019-02-28T09:20:11.288Z,43.68
2019-02-28T09:24:14.638Z,41.45
2019-02-28T09:28:17.980Z,39.47
2019-02-28T09:32:21.403Z,41.88
2019-02-28T09:36:24.742Z,40.62
2019-02-28T09:40:29.419Z,39.35
2019-02-28T09:44:33.445Z,39.09
2019-02-28T09:48:37.918Z,39.67
2019-02-28T09:52:42.597Z,40.70
2019-02-28T09:56:46.139Z,42.30
2019-02-28T10:00:50.412Z,41.07
2019-02-28T10:04:53.900Z,40.45
2019-02-28T10:08:57.279Z,39.83
2019-02-28T10:13:00.687Z,38.29
2019-02-28T10:17:04.097Z,35.72
2019-02-28T10:21:07.522Z,36.89
2019-02-28T10:25:12.040Z,35.45
2019-02-28T10:29:15.452Z,35.29
2019-02-28T10:33:18.858Z,35.96
2019-02-28T10:37:22.816Z,37.21
2019-02-28T10:41:27.969Z,39.38
2019-02-28T10:45:32.158Z,38.32
2019-02-28T10:49:35.566Z,38.72
2019-02-28T10:53:39.567Z,40.54
2019-02-28T10:57:43.613Z,39.82
2019-02-28T11:01:47.023Z,36.92
2019-02-28T11:05:54.313Z,38.03
2019-02-28T11:09:58.731Z,37.10
2019-02-28T11:14:03.921Z,38.51
2019-02-28T11:18:09.639Z,38.81
2019-02-28T11:22:11.878Z,40.49
2019-02-28T11:26:15.373Z,42.28
2019-02-28T11:30:21.745Z,42.76
2019-02-28T11:34:25.178Z,44.88
2019-02-28T11:38:28.558Z,45.91
2019-02-28T11:42:31.967Z,45.63
2019-02-28T11:46:36.611Z,45.65
2019-02-28T11:50:42.592Z,46.78
2019-02-28T11:54:45.878Z,47.51
2019-02-28T11:58:51.770Z,48.04
2019-02-28T12:02:59.708Z,47.97
2019-02-28T12:07:00.844Z,48.30
2019-02-28T12:11:04.846Z,49.81
2019-02-28T12:15:11.531Z,49.86
2019-02-28T12:19:15.909Z,49.69
2019-02-28T12:23:23.364Z,49.63
2019-02-28T12:27:27.582Z,50.43
2019-02-28T12:31:32.117Z,50.30
2019-02-28T12:35:39.952Z,49.64
2019-02-28T12:39:41.002Z,50.64
2019-02-28T12:43:44.540Z,52.14
2019-02-28T12:47:47.914Z,51.03
2019-02-28T12:51:51.526Z,51.91
2019-02-28T12:55:55.040Z,52.01
2019-02-28T12:59:58.407Z,51.98
2019-02-28T13:07:37.820Z,52.38
2019-02-28T13:11:41.333Z,51.89
2019-02-28T13:15:45.734Z,53.59
2019-02-28T13:19:53.150Z,53.69
2019-02-28T13:23:55.144Z,53.34
2019-02-28T13:27:58.661Z,54.21
2019-02-28T13:32:02.594Z,53.88
2019-02-28T13:36:06.293Z,53.44
2019-02-28T13:40:12.326Z,53.79
2019-02-28T13:44:15.684Z,53.66
2019-02-28T13:48:26.062Z,53.87
2019-02-28T13:52:24.341Z,54.90
2019-02-28T13:56:28.980Z,55.86
2019-02-28T14:00:34.188Z,54.94
2019-02-28T14:04:37.537Z,55.75
2019-02-28T14:08:41.990Z,55.91
2019-02-28T14:12:46.107Z,56.50
2019-02-28T14:16:49.519Z,55.48
2019-02-28T14:20:52.912Z,55.61
2019-02-28T14:24:56.318Z,55.91
2019-02-28T14:28:59.726Z,56.38
2019-02-28T14:33:03.142Z,56.91
2019-02-28T14:37:06.549Z,56.27
2019-02-28T14:41:09.957Z,56.80
2019-02-28T14:45:27.594Z,57.32
2019-02-28T14:49:31.016Z,57.64
2019-02-28T14:53:34.412Z,57.77
2019-02-28T14:57:37.923Z,57.51
2019-02-28T15:01:41.273Z,57.23
2019-02-28T15:05:44.757Z,56.70
2019-02-28T15:09:48.151Z,56.33
2019-02-28T15:13:53.081Z,56.70
2019-02-28T15:17:56.711Z,57.46
2019-02-28T15:22:00.143Z,57.25
2019-02-28T15:26:03.531Z,57.91
2019-02-28T15:30:12.353Z,58.04
2019-02-28T15:34:15.774Z,57.53
2019-02-28T15:38:19.184Z,58.22
2019-02-28T15:42:22.592Z,58.30
2019-02-28T15:46:26.103Z,58.35
2019-02-28T15:50:29.515Z,58.48
2019-02-28T15:54:33.030Z,58.48
2019-02-28T15:58:37.613Z,58.84
2019-02-28T16:02:42.120Z,59.43
2019-02-28T16:06:46.228Z,59.58
2019-02-28T16:10:53.450Z,59.46
2019-02-28T16:14:54.891Z,60.20
2019-02-28T16:18:58.295Z,59.87
2019-02-28T16:23:01.705Z,60.08
2019-02-28T16:27:05.241Z,60.38
2019-02-28T16:31:08.623Z,60.60
2019-02-28T16:35:14.617Z,60.44
2019-02-28T16:39:18.232Z,60.69
2019-02-28T16:43:21.820Z,60.62
2019-02-28T16:47:25.329Z,60.81
2019-02-28T16:51:29.424Z,60.91
2019-02-28T16:55:33.786Z,60.66
2019-02-28T16:59:37.196Z,61.06
2019-02-28T17:03:41.779Z,60.98
2019-02-28T17:07:45.652Z,60.98
2019-02-28T17:11:51.417Z,61.45
2019-02-28T17:16:01.447Z,61.49
2019-02-28T17:20:02.940Z,61.24
2019-02-28T17:24:08.622Z,61.35
2019-02-28T17:28:20.007Z,61.38
2019-02-28T17:32:23.515Z,61.53
2019-02-28T17:36:26.924Z,61.42
2019-02-28T17:40:30.329Z,61.63
2019-02-28T17:44:42.670Z,62.19
2019-02-28T17:49:01.009Z,62.20
2019-02-28T17:53:24.437Z,62.13
2019-02-28T17:57:31.072Z,62.03
2019-02-28T18:01:49.840Z,61.96
2019-02-28T18:05:59.186Z,62.00
2019-02-28T18:10:17.535Z,62.26
2019-02-28T18:14:34.239Z,62.28
2019-02-28T18:18:49.966Z,62.50
2019-02-28T18:23:02.476Z,62.81
2019-02-28T18:27:15.219Z,62.83
2019-02-28T18:31:22.289Z,62.71
2019-02-28T18:35:23.725Z,62.09
2019-02-28T18:39:27.186Z,62.02
2019-02-28T18:43:30.596Z,62.47
2019-02-28T18:47:35.994Z,62.17
2019-02-28T18:51:39.365Z,62.24
2019-02-28T18:55:42.807Z,62.44
2019-02-28T18:59:46.278Z,62.99
2019-02-28T19:03:49.812Z,63.03
2019-02-28T19:07:53.304Z,63.17
2019-02-28T19:11:56.710Z,63.28
2019-02-28T19:16:00.119Z,63.32
2019-02-28T19:20:04.259Z,63.66
2019-02-28T19:24:08.578Z,63.69
2019-02-28T19:28:12.093Z,63.82
2019-02-28T19:32:15.416Z,63.92
2019-02-28T19:36:18.835Z,64.02
2019-02-28T19:40:22.230Z,64.18
2019-02-28T19:44:25.617Z,64.06
2019-02-28T19:48:29.029Z,64.23
2019-02-28T19:52:32.442Z,64.33
2019-02-28T19:56:35.950Z,64.30
2019-02-28T20:00:39.465Z,63.92
2019-02-28T20:04:42.887Z,64.16
2019-02-28T20:08:46.188Z,64.29
2019-02-28T20:12:49.599Z,64.49
2019-02-28T20:16:52.985Z,64.73
2019-02-28T20:20:56.812Z,64.58
2019-02-28T20:25:00.281Z,64.68
2019-02-28T20:29:03.740Z,64.82
2019-02-28T20:33:07.252Z,64.79
2019-02-28T20:37:10.663Z,64.56
2019-02-28T20:41:14.030Z,64.50
2019-02-28T20:45:17.575Z,64.36
2019-02-28T20:49:21.085Z,64.15
2019-02-28T20:53:24.493Z,63.98
2019-02-28T20:57:28.005Z,64.14
2019-02-28T21:01:31.518Z,64.20
2019-02-28T21:05:35.951Z,64.24
2019-02-28T21:09:45.006Z,64.47
2019-02-28T21:13:44.463Z,64.43
2019-02-28T21:17:47.925Z,64.21
2019-02-28T21:21:51.330Z,64.40
2019-02-28T21:25:57.441Z,64.40
2019-02-28T21:30:01.013Z,64.23
2019-02-28T21:34:04.638Z,64.22
2019-02-28T21:38:08.154Z,63.94
2019-02-28T21:42:11.832Z,63.81
2019-02-28T21:46:15.365Z,63.84
2019-02-28T21:50:18.779Z,64.17
2019-02-28T21:54:22.183Z,64.53
2019-02-28T21:58:25.590Z,64.53
2019-02-28T22:02:28.999Z,64.31
2019-02-28T22:06:32.344Z,64.13
2019-02-28T22:10:35.719Z,64.87
2019-02-28T22:14:39.129Z,64.30
2019-02-28T22:18:42.538Z,64.31
2019-02-28T22:22:45.945Z,64.68
2019-02-28T22:26:49.351Z,64.70
2019-02-28T22:30:54.403Z,64.05
2019-02-28T22:34:59.452Z,63.97
2019-02-28T22:39:03.066Z,63.95
2019-02-28T22:43:06.475Z,64.09
2019-02-28T22:47:09.877Z,63.73
2019-02-28T22:51:13.215Z,63.65
2019-02-28T22:55:16.606Z,63.70
2019-02-28T22:59:20.109Z,63.62
2019-02-28T23:03:23.515Z,63.65
2019-02-28T23:07:26.925Z,63.44
2019-02-28T23:11:30.333Z,63.72
2019-02-28T23:15:33.764Z,63.44
2019-02-28T23:19:37.155Z,62.91
2019-02-28T23:23:40.565Z,63.78
2019-02-28T23:27:43.970Z,64.31
2019-02-28T23:31:50.653Z,63.69
2019-02-28T23:35:54.287Z,63.93
2019-02-28T23:39:57.676Z,63.79
2019-02-28T23:44:01.093Z,63.75
2019-02-28T23:48:04.492Z,63.78
2019-02-28T23:52:07.905Z,63.80
2019-02-28T23:56:11.316Z,64.14
